createdAt,value
2019-02-24T00:02:01.141Z,11.85
2019-02-24T00:04:29.499Z,12.45
2019-02-24T00:06:57.575Z,10.95
2019-02-24T00:09:25.626Z,11.53
2019-02-24T00:11:54.707Z,10.93
2019-02-24T00:14:24.717Z,11.30
2019-02-24T00:16:55.061Z,12.35
2019-02-24T00:19:24.063Z,10.75
2019-02-24T00:21:52.099Z,11.05
2019-02-24T00:24:23.080Z,11.50
2019-02-24T00:26:51.049Z,12.13
2019-02-24T00:29:22.533Z,11.20
2019-02-24T00:31:50.274Z,10.55
2019-02-24T00:34:18.381Z,13.60
2019-02-24T00:36:47.035Z,11.78
2019-02-24T00:39:17.234Z,13.13
2019-02-24T00:41:45.441Z,13.98
2019-02-24T00:44:15.551Z,14.53
2019-02-24T00:46:44.912Z,14.65
2019-02-24T00:49:14.126Z,15.38
2019-02-24T00:51:42.096Z,12.82
2019-02-24T00:54:10.348Z,13.10
2019-02-24T00:56:38.587Z,14.50
2019-02-24T00:59:06.558Z,12.78
2019-02-24T01:01:40.437Z,13.45
2019-02-24T01:04:08.529Z,12.35
2019-02-24T01:06:36.531Z,13.60
2019-02-24T01:09:06.474Z,13.40
2019-02-24T01:11:36.698Z,12.30
2019-02-24T01:14:05.127Z,13.65
2019-02-24T01:16:34.229Z,13.20
2019-02-24T01:19:02.217Z,11.95
2019-02-24T01:21:30.231Z,12.58
2019-02-24T01:24:03.523Z,14.75
2019-02-24T01:26:33.363Z,13.80
2019-02-24T01:29:01.364Z,11.80
2019-02-24T01:31:29.304Z,11.33
2019-02-24T01:33:58.225Z,11.35
2019-02-24T01:36:28.817Z,10.72
2019-02-24T01:38:57.095Z,12.58
2019-02-24T01:41:26.112Z,11.95
2019-02-24T01:43:54.166Z,12.05
2019-02-24T01:46:25.600Z,11.60
2019-02-24T01:48:53.525Z,12.75
2019-02-24T01:51:23.041Z,11.22
2019-02-24T01:53:51.501Z,12.20
2019-02-24T01:56:23.279Z,12.40
2019-02-24T01:58:51.485Z,11.40
2019-02-24T02:01:20.893Z,12.50
2019-02-24T02:03:59.499Z,11.03
2019-02-24T02:06:29.018Z,9.65
2019-02-24T02:08:58.817Z,11.60
2019-02-24T02:11:33.766Z,13.13
2019-02-24T02:14:01.703Z,12.28
2019-02-24T02:16:30.599Z,13.60
2019-02-24T02:18:59.645Z,12.25
2019-02-24T02:21:27.636Z,12.15
2019-02-24T02:23:56.682Z,12.15
2019-02-24T02:26:24.728Z,12.45
2019-02-24T02:28:53.407Z,11.55
2019-02-24T02:31:21.350Z,11.35
2019-02-24T02:33:49.729Z,11.30
2019-02-24T02:36:18.204Z,12.07
2019-02-24T02:38:46.471Z,10.35
2019-02-24T02:41:14.612Z,12.43
2019-02-24T02:43:45.787Z,11.75
2019-02-24T02:46:14.888Z,14.20
2019-02-24T02:48:44.124Z,12.78
2019-02-24T02:51:12.116Z,12.33
2019-02-24T02:53:42.046Z,11.45
2019-02-24T02:56:13.119Z,11.73
2019-02-24T02:58:42.563Z,12.50
2019-02-24T03:01:10.530Z,13.70
2019-02-24T03:03:39.282Z,13.05
2019-02-24T03:06:41.563Z,12.75
2019-02-24T03:09:11.322Z,11.43
2019-02-24T03:11:43.233Z,12.88
2019-02-24T03:14:11.134Z,11.75
2019-02-24T03:16:39.531Z,13.10
2019-02-24T03:19:07.479Z,14.58
2019-02-24T03:21:35.381Z,11.45
2019-02-24T03:24:03.500Z,12.07
2019-02-24T03:26:32.949Z,11.57
2019-02-24T03:29:04.114Z,12.10
2019-02-24T03:31:31.147Z,11.38
2019-02-24T03:33:59.664Z,11.15
2019-02-24T03:36:27.554Z,12.40
2019-02-24T03:39:04.432Z,12.23
2019-02-24T03:41:34.658Z,13.20
2019-02-24T03:44:04.245Z,12.45
2019-02-24T03:46:32.166Z,12.70
2019-02-24T03:49:00.637Z,11.80
2019-02-24T03:51:29.556Z,11.90
2019-02-24T03:54:00.025Z,11.90
2019-02-24T03:56:27.856Z,12.07
2019-02-24T03:58:57.058Z,12.07
2019-02-24T04:01:24.998Z,12.00
2019-02-24T04:03:53.073Z,13.60
2019-02-24T04:06:21.040Z,13.93
2019-02-24T04:08:51.414Z,11.73
2019-02-24T04:11:19.526Z,12.98
2019-02-24T04:13:47.418Z,12.65
2019-02-24T04:16:15.296Z,12.15
2019-02-24T04:18:43.225Z,11.97
2019-02-24T04:21:11.175Z,12.50
2019-02-24T04:23:39.213Z,11.38
2019-02-24T04:26:07.641Z,12.05
2019-02-24T04:28:35.630Z,12.13
2019-02-24T04:31:04.011Z,12.43
2019-02-24T04:33:32.019Z,13.38
2019-02-24T04:36:00.177Z,12.07
2019-02-24T04:38:29.359Z,12.60
2019-02-24T04:40:57.284Z,11.75
2019-02-24T04:43:25.359Z,12.28
2019-02-24T04:45:53.285Z,11.22
2019-02-24T04:48:21.782Z,10.98
2019-02-24T04:50:49.747Z,10.68
2019-02-24T04:53:17.790Z,10.80
2019-02-24T04:55:45.658Z,12.28
2019-02-24T04:58:18.490Z,12.15
2019-02-24T05:00:47.375Z,11.80
2019-02-24T05:03:15.339Z,12.82
2019-02-24T05:05:43.269Z,11.43
2019-02-24T05:08:12.295Z,11.60
2019-02-24T05:10:40.266Z,10.90
2019-02-24T05:13:08.426Z,13.95
2019-02-24T05:15:39.814Z,13.40
2019-02-24T05:18:08.043Z,13.40
2019-02-24T05:20:35.914Z,12.18
2019-02-24T05:23:03.780Z,12.20
2019-02-24T05:25:34.052Z,13.53
2019-02-24T05:28:07.386Z,12.30
2019-02-24T05:30:35.357Z,12.75
2019-02-24T05:33:03.296Z,12.37
2019-02-24T05:35:32.871Z,12.98
2019-02-24T05:38:02.178Z,12.45
2019-02-24T05:40:30.345Z,12.95
2019-02-24T05:42:59.992Z,12.43
2019-02-24T05:45:33.714Z,11.63
2019-02-24T05:48:02.845Z,12.82
2019-02-24T05:50:30.806Z,11.97
2019-02-24T05:52:58.746Z,11.80
2019-02-24T05:55:28.332Z,12.47
2019-02-24T05:57:56.264Z,12.80
2019-02-24T06:00:25.072Z,12.58
2019-02-24T06:02:55.382Z,12.82
2019-02-24T06:05:23.226Z,12.93
2019-02-24T06:07:51.146Z,13.28
2019-02-24T06:10:21.117Z,12.45
2019-02-24T06:12:50.045Z,12.80
2019-02-24T06:15:17.933Z,11.57
2019-02-24T06:17:45.847Z,12.45
2019-02-24T06:20:13.831Z,12.80
2019-02-24T06:22:42.151Z,12.20
2019-02-24T06:25:10.201Z,12.28
2019-02-24T06:27:38.630Z,12.13
2019-02-24T06:30:08.260Z,11.95
2019-02-24T06:32:37.202Z,12.35
2019-02-24T06:35:05.265Z,11.90
2019-02-24T06:37:33.198Z,11.20
2019-02-24T06:40:02.516Z,12.60
2019-02-24T06:42:31.983Z,12.53
2019-02-24T06:45:00.651Z,12.20
2019-02-24T06:47:30.356Z,11.63
2019-02-24T06:49:59.152Z,13.03
2019-02-24T06:52:28.166Z,13.55
2019-02-24T06:54:57.926Z,11.35
2019-02-24T06:57:25.798Z,12.50
2019-02-24T06:59:54.644Z,12.60
2019-02-24T07:02:22.610Z,10.53
2019-02-24T07:04:53.102Z,11.10
2019-02-24T07:07:22.098Z,11.83
2019-02-24T07:09:50.041Z,11.30
2019-02-24T07:12:19.813Z,11.93
2019-02-24T07:14:47.779Z,11.30
2019-02-24T07:17:15.934Z,11.33
2019-02-24T07:19:43.878Z,10.98
2019-02-24T07:22:11.906Z,12.40
2019-02-24T07:24:44.343Z,11.30
2019-02-24T07:27:12.910Z,9.93
2019-02-24T07:29:42.285Z,12.18
2019-02-24T07:32:11.616Z,10.23
2019-02-24T07:34:40.886Z,11.03
2019-02-24T07:37:19.418Z,11.35
2019-02-24T07:39:48.766Z,10.53
2019-02-24T07:42:16.975Z,10.50
2019-02-24T07:44:44.861Z,10.20
2019-02-24T07:47:12.792Z,11.97
2019-02-24T07:49:40.697Z,10.20
2019-02-24T07:52:08.589Z,11.80
2019-02-24T07:54:36.520Z,10.82
2019-02-24T07:57:04.420Z,10.43
2019-02-24T07:59:32.366Z,10.15
2019-02-24T08:02:00.247Z,10.63
2019-02-24T08:04:28.161Z,10.95
2019-02-24T08:06:56.106Z,10.68
2019-02-24T08:09:24.038Z,9.90
2019-02-24T08:11:51.905Z,10.38
2019-02-24T08:14:19.980Z,10.72
2019-02-24T08:16:47.881Z,10.03
2019-02-24T08:19:15.768Z,9.83
2019-02-24T08:21:43.639Z,10.90
2019-02-24T08:24:11.583Z,10.80
2019-02-24T08:26:39.481Z,10.85
2019-02-24T08:29:07.402Z,10.68
2019-02-24T08:31:35.370Z,12.10
2019-02-24T08:34:03.311Z,11.33
2019-02-24T08:36:31.201Z,11.38
2019-02-24T08:38:59.079Z,11.53
2019-02-24T08:41:26.933Z,11.45
2019-02-24T08:43:54.883Z,11.25
2019-02-24T08:46:23.076Z,11.35
2019-02-24T08:48:50.982Z,11.43
2019-02-24T08:51:18.826Z,10.38
2019-02-24T08:53:46.902Z,9.90
2019-02-24T08:56:14.876Z,10.28
2019-02-24T08:58:42.718Z,11.10
2019-02-24T09:01:10.573Z,11.10
2019-02-24T09:03:38.483Z,10.60
2019-02-24T09:06:06.422Z,10.88
2019-02-24T09:08:34.312Z,11.05
2019-02-24T09:11:02.217Z,11.00
2019-02-24T09:13:30.088Z,9.45
2019-02-24T09:15:57.984Z,9.65
2019-02-24T09:18:26.240Z,10.35
2019-02-24T09:20:54.150Z,10.82
2019-02-24T09:23:22.013Z,10.40
2019-02-24T09:25:49.986Z,10.50
2019-02-24T09:28:17.824Z,9.83
2019-02-24T09:30:45.706Z,9.43
2019-02-24T09:33:13.589Z,8.60
2019-02-24T09:35:41.561Z,8.60
2019-02-24T09:38:09.450Z,6.27
2019-02-24T09:40:37.310Z,8.33
2019-02-24T09:43:05.193Z,8.10
2019-02-24T09:45:33.044Z,9.00
2019-02-24T09:48:00.930Z,9.13
2019-02-24T09:50:28.783Z,8.85
2019-02-24T09:52:56.707Z,7.53
2019-02-24T09:55:24.585Z,7.30
2019-02-24T09:57:52.489Z,7.05
2019-02-24T10:00:21.991Z,7.70
2019-02-24T10:02:50.034Z,8.17
2019-02-24T10:05:17.909Z,8.83
2019-02-24T10:07:45.858Z,8.20
2019-02-24T10:10:14.106Z,7.80
2019-02-24T10:12:41.953Z,8.37
2019-02-24T10:15:09.797Z,9.30
2019-02-24T10:17:37.673Z,8.97
2019-02-24T10:20:05.994Z,7.83
2019-02-24T10:22:33.904Z,7.20
2019-02-24T10:25:01.807Z,8.20
2019-02-24T10:27:29.806Z,7.47
2019-02-24T10:29:57.695Z,7.40
2019-02-24T10:32:25.537Z,6.93
2019-02-24T10:34:53.388Z,7.23
2019-02-24T10:37:21.250Z,6.57
2019-02-24T10:39:49.146Z,6.10
2019-02-24T10:42:17.057Z,7.13
2019-02-24T10:44:44.913Z,6.60
2019-02-24T10:47:12.762Z,6.13
2019-02-24T10:49:40.680Z,6.20
2019-02-24T10:52:08.537Z,6.43
2019-02-24T10:54:36.391Z,6.50
2019-02-24T10:57:04.306Z,5.60
2019-02-24T10:59:32.638Z,6.23
2019-02-24T11:02:00.533Z,6.37
2019-02-24T11:04:28.946Z,6.13
2019-02-24T11:06:56.922Z,6.70
2019-02-24T11:09:24.907Z,6.30
2019-02-24T11:11:53.902Z,6.40
2019-02-24T11:14:24.791Z,6.07
2019-02-24T11:16:52.845Z,5.87
2019-02-24T11:19:20.722Z,5.53
2019-02-24T11:21:49.473Z,5.20
2019-02-24T11:24:17.459Z,5.57
2019-02-24T11:26:45.942Z,5.67
2019-02-24T11:29:14.073Z,5.50
2019-02-24T11:31:45.665Z,6.13
2019-02-24T11:34:18.123Z,5.60
2019-02-24T11:36:48.342Z,5.77
2019-02-24T11:39:17.920Z,6.10
2019-02-24T11:41:50.899Z,5.37
2019-02-24T11:44:18.952Z,5.23
2019-02-24T11:46:47.043Z,5.90
2019-02-24T11:49:17.254Z,5.97
2019-02-24T11:52:03.821Z,6.57
2019-02-24T11:54:30.356Z,7.10
2019-02-24T11:56:59.649Z,7.07
2019-02-24T11:59:27.824Z,7.13
2019-02-24T12:01:58.837Z,7.90
2019-02-24T12:04:28.206Z,7.62
2019-02-24T12:06:57.655Z,7.45
2019-02-24T12:09:25.627Z,6.55
2019-02-24T12:11:56.369Z,8.05
2019-02-24T12:14:28.185Z,4.92
2019-02-24T12:16:56.208Z,4.80
2019-02-24T12:19:26.017Z,4.47
2019-02-24T12:21:56.075Z,3.72
2019-02-24T12:24:24.057Z,5.15
2019-02-24T12:26:51.950Z,4.67
2019-02-24T12:29:27.351Z,6.70
2019-02-24T12:31:56.827Z,5.90
2019-02-24T12:34:24.982Z,5.87
2019-02-24T12:36:52.980Z,11.03
2019-02-24T12:39:21.385Z,6.75
2019-02-24T12:41:49.382Z,7.25
2019-02-24T12:44:17.510Z,7.78
2019-02-24T12:46:47.634Z,6.50
2019-02-24T12:49:15.919Z,6.00
2019-02-24T12:51:45.155Z,5.95
2019-02-24T12:54:14.937Z,6.55
2019-02-24T12:56:42.960Z,7.05
2019-02-24T12:59:12.284Z,6.37
2019-02-24T13:01:40.206Z,5.90
2019-02-24T13:04:08.193Z,6.20
2019-02-24T13:06:36.263Z,6.75
2019-02-24T13:09:06.575Z,6.40
2019-02-24T13:11:34.754Z,6.47
2019-02-24T13:14:06.151Z,6.40
2019-02-24T13:16:36.477Z,6.97
2019-02-24T13:19:06.944Z,11.53
2019-02-24T13:21:35.961Z,7.10
2019-02-24T13:24:03.976Z,5.42
2019-02-24T13:26:33.329Z,6.40
2019-02-24T13:29:03.054Z,7.25
2019-02-24T13:31:33.381Z,6.65
2019-02-24T13:34:13.001Z,6.45
2019-02-24T13:36:43.808Z,6.40
2019-02-24T13:39:11.615Z,6.30
2019-02-24T13:41:39.962Z,5.53
2019-02-24T13:44:08.738Z,5.80
2019-02-24T13:46:36.750Z,6.25
2019-02-24T13:49:04.742Z,5.40
2019-02-24T13:51:32.705Z,5.80
2019-02-24T13:54:00.594Z,5.00
2019-02-24T13:56:28.502Z,6.72
2019-02-24T13:58:56.417Z,5.62
2019-02-24T14:01:24.306Z,5.78
2019-02-24T14:03:52.183Z,5.75
2019-02-24T14:06:20.489Z,4.50
2019-02-24T14:08:48.467Z,4.65
2019-02-24T14:11:16.402Z,4.15
2019-02-24T14:13:44.270Z,4.35
2019-02-24T14:16:12.382Z,4.12
2019-02-24T14:18:40.278Z,4.85
2019-02-24T14:21:08.189Z,4.40
2019-02-24T14:23:36.144Z,3.95
2019-02-24T14:26:04.063Z,4.15
2019-02-24T14:28:31.923Z,3.67
2019-02-24T14:30:59.845Z,4.30
2019-02-24T14:33:27.722Z,3.80
2019-02-24T14:35:55.600Z,4.25
2019-02-24T14:38:23.491Z,5.20
2019-02-24T14:40:51.411Z,4.40
2019-02-24T14:43:19.346Z,4.55
2019-02-24T14:46:09.068Z,4.10
2019-02-24T14:48:37.214Z,3.47
2019-02-24T14:51:05.153Z,4.62
2019-02-24T14:53:33.096Z,4.67
2019-02-24T14:56:00.990Z,4.75
2019-02-24T14:58:28.947Z,4.20
2019-02-24T15:00:56.893Z,3.92
2019-02-24T15:03:24.919Z,3.75
2019-02-24T15:05:52.765Z,4.45
2019-02-24T15:08:20.686Z,4.40
2019-02-24T15:10:48.826Z,4.87
2019-02-24T15:13:16.734Z,4.55
2019-02-24T15:15:44.646Z,4.25
2019-02-24T15:18:12.532Z,5.12
2019-02-24T15:20:40.468Z,5.20
2019-02-24T15:23:08.400Z,4.90
2019-02-24T15:25:36.324Z,4.92
2019-02-24T15:28:04.290Z,4.37
2019-02-24T15:30:32.204Z,4.70
2019-02-24T15:33:00.180Z,5.20
2019-02-24T15:35:28.096Z,4.40
2019-02-24T15:37:56.002Z,4.40
2019-02-24T15:40:23.953Z,4.87
2019-02-24T15:42:51.846Z,4.25
2019-02-24T15:45:19.839Z,5.62
2019-02-24T15:47:47.680Z,4.80
2019-02-24T15:50:15.571Z,5.97
2019-02-24T15:52:43.466Z,5.53
2019-02-24T15:55:11.462Z,5.10
2019-02-24T15:57:39.327Z,5.42
2019-02-24T16:00:08.639Z,5.92
2019-02-24T16:02:36.502Z,5.15
2019-02-24T16:05:04.733Z,5.47
2019-02-24T16:07:32.619Z,6.03
2019-02-24T16:10:00.564Z,5.70
2019-02-24T16:12:28.480Z,6.35
2019-02-24T16:14:56.567Z,6.03
2019-02-24T16:17:24.488Z,6.72
2019-02-24T16:19:52.453Z,6.58
2019-02-24T16:22:20.357Z,5.85
2019-02-24T16:24:48.225Z,6.08
2019-02-24T16:27:16.256Z,6.95
2019-02-24T16:29:44.111Z,5.87
2019-02-24T16:32:12.141Z,7.60
2019-02-24T16:34:40.097Z,7.00
2019-02-24T16:37:08.027Z,7.40
2019-02-24T16:39:35.975Z,7.15
2019-02-24T16:42:04.046Z,5.92
2019-02-24T16:44:31.906Z,5.90
2019-02-24T16:47:00.067Z,6.92
2019-02-24T16:49:28.058Z,6.30
2019-02-24T16:51:55.927Z,6.35
2019-02-24T16:54:23.839Z,6.40
2019-02-24T16:56:51.735Z,6.40
2019-02-24T16:59:19.602Z,5.85
2019-02-24T17:01:47.532Z,6.08
2019-02-24T17:04:15.398Z,5.85
2019-02-24T17:06:43.282Z,5.33
2019-02-24T17:09:11.226Z,5.85
2019-02-24T17:11:39.231Z,6.72
2019-02-24T17:14:07.155Z,6.45
2019-02-24T17:16:35.029Z,7.75
2019-02-24T17:19:02.929Z,6.75
2019-02-24T17:21:30.882Z,6.95
2019-02-24T17:23:58.864Z,6.85
2019-02-24T17:26:26.834Z,6.97
2019-02-24T17:28:54.836Z,7.22
2019-02-24T17:31:28.276Z,6.75
2019-02-24T17:33:52.378Z,7.42
2019-02-24T17:36:20.406Z,7.65
2019-02-24T17:38:48.269Z,7.42
2019-02-24T17:41:16.244Z,7.28
2019-02-24T17:43:44.145Z,7.70
2019-02-24T17:46:12.070Z,7.53
2019-02-24T17:48:40.063Z,6.75
2019-02-24T17:51:07.987Z,6.92
2019-02-24T17:53:35.875Z,8.48
2019-02-24T17:56:04.219Z,8.15
2019-02-24T17:58:32.086Z,8.33
2019-02-24T18:01:02.020Z,9.43
2019-02-24T18:03:38.807Z,10.35
2019-02-24T18:05:59.617Z,9.58
2019-02-24T18:08:28.434Z,8.70
2019-02-24T18:10:56.521Z,7.55
2019-02-24T18:13:24.432Z,9.10
2019-02-24T18:15:52.416Z,8.25
2019-02-24T18:18:20.270Z,7.83
2019-02-24T18:20:48.255Z,8.73
2019-02-24T18:23:16.152Z,8.43
2019-02-24T18:25:44.214Z,7.78
2019-02-24T18:28:12.247Z,10.72
2019-02-24T18:30:40.442Z,10.80
2019-02-24T18:33:08.389Z,9.68
2019-02-24T18:35:36.529Z,9.63
2019-02-24T18:38:05.318Z,9.03
2019-02-24T18:40:34.855Z,8.83
2019-02-24T18:43:06.720Z,8.30
2019-02-24T18:45:34.779Z,9.83
2019-02-24T18:48:04.838Z,7.83
2019-02-24T18:50:33.135Z,7.40
2019-02-24T18:53:01.507Z,7.65
2019-02-24T18:55:29.981Z,7.37
2019-02-24T18:58:00.254Z,8.65
2019-02-24T19:00:28.686Z,8.08
2019-02-24T19:02:58.904Z,7.35
2019-02-24T19:05:26.894Z,8.73
2019-02-24T19:07:54.873Z,9.55
2019-02-24T19:10:25.742Z,8.70
2019-02-24T19:12:54.203Z,9.28
2019-02-24T19:15:24.493Z,9.65
2019-02-24T19:17:54.703Z,7.95
2019-02-24T19:20:22.985Z,8.15
2019-02-24T19:22:51.577Z,7.67
2019-02-24T19:25:22.241Z,8.35
2019-02-24T19:27:52.459Z,9.90
2019-02-24T19:30:20.507Z,8.00
2019-02-24T19:32:50.740Z,8.28
2019-02-24T19:35:19.468Z,8.75
2019-02-24T19:37:49.535Z,8.40
2019-02-24T19:40:21.625Z,8.50
2019-02-24T19:42:49.947Z,8.85
2019-02-24T19:45:18.030Z,9.85
2019-02-24T19:47:46.443Z,9.25
2019-02-24T19:50:15.497Z,8.63
2019-02-24T19:52:43.385Z,8.53
2019-02-24T19:55:12.355Z,8.60
2019-02-24T19:57:40.748Z,12.45
2019-02-24T20:00:11.612Z,10.82
2019-02-24T20:02:40.757Z,11.20
2019-02-24T20:05:11.532Z,12.10
2019-02-24T20:07:40.935Z,12.93
2019-02-24T20:10:09.247Z,11.80
2019-02-24T20:12:38.035Z,13.70
2019-02-24T20:15:07.626Z,10.80
2019-02-24T20:17:35.581Z,10.98
2019-02-24T20:20:03.937Z,9.10
2019-02-24T20:22:32.542Z,10.60
2019-02-24T20:25:02.516Z,10.78
2019-02-24T20:27:30.509Z,9.70
2019-02-24T20:29:58.552Z,9.28
2019-02-24T20:32:26.667Z,10.40
2019-02-24T20:34:56.932Z,9.65
2019-02-24T20:37:25.362Z,10.00
2019-02-24T20:39:55.725Z,11.10
2019-02-24T20:42:25.015Z,9.45
2019-02-24T20:44:53.576Z,9.73
2019-02-24T20:47:21.550Z,9.35
2019-02-24T20:49:49.918Z,9.00
2019-02-24T20:52:20.536Z,8.93
2019-02-24T20:54:48.558Z,8.13
2019-02-24T20:57:18.315Z,9.35
2019-02-24T20:59:47.520Z,9.78
2019-02-24T21:02:17.170Z,8.98
2019-02-24T21:04:45.200Z,9.93
2019-02-24T21:07:30.474Z,8.98
2019-02-24T21:09:58.439Z,8.68
2019-02-24T21:12:31.450Z,8.10
2019-02-24T21:15:01.194Z,9.90
2019-02-24T21:17:30.361Z,9.13
2019-02-24T21:19:58.497Z,9.35
2019-02-24T21:22:27.811Z,9.75
2019-02-24T21:24:55.895Z,9.45
2019-02-24T21:27:23.851Z,10.20
2019-02-24T21:29:56.684Z,9.83
2019-02-24T21:32:24.590Z,9.70
2019-02-24T21:34:52.672Z,8.65
2019-02-24T21:37:22.667Z,10.40
2019-02-24T21:39:51.200Z,9.25
2019-02-24T21:42:19.780Z,9.48
2019-02-24T21:44:47.751Z,9.65
2019-02-24T21:47:15.706Z,8.43
2019-02-24T21:49:44.705Z,10.90
2019-02-24T21:52:12.700Z,10.75
2019-02-24T21:54:40.697Z,9.00
2019-02-24T21:57:09.476Z,11.28
2019-02-24T21:59:39.948Z,9.63
2019-02-24T22:02:09.502Z,9.33
2019-02-24T22:04:37.411Z,8.73
2019-02-24T22:07:07.609Z,9.40
2019-02-24T22:09:36.417Z,9.00
2019-02-24T22:12:04.420Z,9.63
2019-02-24T22:14:32.386Z,9.73
2019-02-24T22:17:01.403Z,9.40
2019-02-24T22:19:31.233Z,9.00
2019-02-24T22:21:59.230Z,8.88
2019-02-24T22:24:28.735Z,8.40
2019-02-24T22:26:56.805Z,10.78
2019-02-24T22:29:26.766Z,10.30
2019-02-24T22:31:55.733Z,9.98
2019-02-24T22:34:23.839Z,8.33
2019-02-24T22:36:51.869Z,9.65
2019-02-24T22:39:19.739Z,9.30
2019-02-24T22:41:47.722Z,9.05
2019-02-24T22:44:15.683Z,9.23
2019-02-24T22:46:44.033Z,9.78
2019-02-24T22:49:15.658Z,10.65
2019-02-24T22:51:46.281Z,9.45
2019-02-24T22:54:14.238Z,9.15
2019-02-24T22:56:45.436Z,10.00
2019-02-24T22:59:13.987Z,8.35
2019-02-24T23:01:44.354Z,9.88
2019-02-24T23:04:13.675Z,8.98
2019-02-24T23:06:41.629Z,8.45
2019-02-24T23:09:11.869Z,9.53
2019-02-24T23:11:39.789Z,9.95
2019-02-24T23:14:07.709Z,7.42
2019-02-24T23:16:35.998Z,8.28
2019-02-24T23:19:06.497Z,9.58
2019-02-24T23:21:34.436Z,8.85
2019-02-24T23:24:03.021Z,9.05
2019-02-24T23:26:31.016Z,8.60
2019-02-24T23:28:58.975Z,8.08
2019-02-24T23:31:29.061Z,9.20
2019-02-24T23:34:01.972Z,9.23
2019-02-24T23:36:31.580Z,8.00
2019-02-24T23:38:59.570Z,9.68
2019-02-24T23:41:35.761Z,8.48
2019-02-24T23:44:03.700Z,9.18
2019-02-24T23:46:31.686Z,9.13
2019-02-24T23:49:02.002Z,9.55
2019-02-24T23:51:33.705Z,9.10
2019-02-24T23:54:01.646Z,9.80
2019-02-24T23:56:29.717Z,8.93
2019-02-24T23:58:59.955Z,8.83
